Milton, Florida
Current Conditions -  °F | °C
As of 8:56 AM on Thursday 18 Dec 2014 (Local Time) from KNDZ Reporting Station
Scattered Clouds Scattered Clouds  
Wind Chill: 46°   Ceiling: Unl
Heat Index: 48°   Visibility: 9mi
Dew Point: 39°   Wind: 5mph
Humidity: 71%   Direction: 30°NNE
Pressure: 30.24"   Gusts: NA
Location:  30.63°N, 87.04°W
Report Text: KNDZ 181456Z 03004KT 9SM FEW150 SCT250 09/04 A3024 RMK AO2 SLP227 T00890039 51014
Loading
Personal Weather Stations






























Interactive Weather Map New forecast layout! Learn more

10-Day Weather Forecast

Advertisements
Track Severe Weather on mobile